Wake Island Airfield, Wake Island

4:54 PM WAKT on March 05, 2015 (GMT +1200)
Wake Island Army Air Field | Change Station
CLOSE
Current Station
Airport
Location: Wake Island, Wake Island Army,
Elevation: 13 ft
Nearby Weather Stations

Elev 13 ft 19.28 °N, 166.64 °E | Updated 56 minutes ago

Partly Cloudy
Partly Cloudy
81 °F
Feels Like 84 °F
N
26
Wind Variable Wind from East
Gusts 33 mph

Today
High -- | Low -- °F
--% Chance of Precip.
Yesterday
High -- | Low -- °F
Precip. -- in
7:10 AM 6:59 PM
Full, 100% visible
Pressure 29.94 in
Visibility 6.2 miles
Clouds Few 2700 ft
Heat Index 84 °F
Dew Point 66 °F
Humidity 60%
Rainfall 0.00 in
Snow Depth Not available.
UV 5 out of 12
Pollen Not available.
Air Quality Not available.
Flu Activity Not available.
METAR PWAK 050358Z AUTO 08023G29KT 9999 FEW027 27/19 A2992 RMK AO2 PK WND 08029/45 SLP138 T02740190

More Conditions Fewer Conditions

Pressure 29.94 in
Visibility 6.2 miles
Clouds Few 2700 ft
Heat Index 84 °F
Dew Point 66 °F
Humidity 60%
Rainfall 0.00 in
Snow Depth Not available.
UV 5 out of 12
Pollen Not available.
Air Quality Not available.
Flu Activity Not available.
METAR PWAK 050358Z AUTO 08023G29KT 9999 FEW027 27/19 A2992 RMK AO2 PK WND 08029/45 SLP138 T02740190

More Conditions Fewer Conditions

10-Day Weather Forecast

Almanac

Astronomy

Mar. 05, 2015 Rise Set
Actual Time
Civil Twilight
Nautical Twilight
Astronomical Twilight
Moon
Length of Visible Light
Length of Day
Tomorrow will be .
, % of the Moon is Illuminated

Today's Extremes

Country Highs Country Lows

Community

WunderPhotos

Upload Photos

1,802,677 photos uploaded!

WunderBlogs® & News

Nearby

Air Quality

  Air Quality AQ Index Pollutant
Not available.

Snow Depth

Station Depth Elevation

Earthquake Activity

City Distance Mag. Time & Date
Minimum magnitude displayed is 2.5.

Coastal Water Temperatures

Place Temperature

Nearby Weather Stations